sensor_id;sensor_type;location;lat;lon;timestamp;P1;durP1;ratioP1;P2;durP2;ratioP2
18789;SDS011;9523;42.650;23.386;2022-10-16T00:02:21;12.63;;;7.93;;
18789;SDS011;9523;42.650;23.386;2022-10-16T00:04:47;13.93;;;8.73;;
18789;SDS011;9523;42.650;23.386;2022-10-16T00:07:14;15.03;;;9.27;;
18789;SDS011;9523;42.650;23.386;2022-10-16T00:09:42;13.97;;;9.17;;
18789;SDS011;9523;42.650;23.386;2022-10-16T00:12:09;13.27;;;8.90;;
18789;SDS011;9523;42.650;23.386;2022-10-16T00:14:36;12.70;;;7.87;;
18789;SDS011;9523;42.650;23.386;2022-10-16T00:17:05;14.50;;;8.00;;
18789;SDS011;9523;42.650;23.386;2022-10-16T00:19:32;12.03;;;7.30;;
18789;SDS011;9523;42.650;23.386;2022-10-16T00:21:59;13.30;;;8.20;;
18789;SDS011;9523;42.650;23.386;2022-10-16T00:24:26;13.10;;;7.90;;
18789;SDS011;9523;42.650;23.386;2022-10-16T00:26:54;22.90;;;14.23;;
18789;SDS011;9523;42.650;23.386;2022-10-16T00:29:21;16.87;;;9.93;;
18789;SDS011;9523;42.650;23.386;2022-10-16T00:31:48;16.40;;;9.73;;
18789;SDS011;9523;42.650;23.386;2022-10-16T00:34:14;12.63;;;9.47;;
18789;SDS011;9523;42.650;23.386;2022-10-16T00:36:41;23.17;;;13.57;;
18789;SDS011;9523;42.650;23.386;2022-10-16T00:39:08;19.60;;;11.20;;
18789;SDS011;9523;42.650;23.386;2022-10-16T00:41:35;18.70;;;10.27;;
18789;SDS011;9523;42.650;23.386;2022-10-16T00:44:04;17.53;;;11.23;;
18789;SDS011;9523;42.650;23.386;2022-10-16T00:47:09;19.50;;;11.20;;
18789;SDS011;9523;42.650;23.386;2022-10-16T00:49:39;16.63;;;10.67;;
18789;SDS011;9523;42.650;23.386;2022-10-16T00:52:06;19.63;;;10.80;;
18789;SDS011;9523;42.650;23.386;2022-10-16T00:54:32;18.03;;;10.77;;
18789;SDS011;9523;42.650;23.386;2022-10-16T00:57:01;15.53;;;10.10;;
18789;SDS011;9523;42.650;23.386;2022-10-16T00:59:33;22.80;;;11.20;;
18789;SDS011;9523;42.650;23.386;2022-10-16T01:02:01;20.37;;;10.67;;
18789;SDS011;9523;42.650;23.386;2022-10-16T01:04:30;18.40;;;10.70;;
18789;SDS011;9523;42.650;23.386;2022-10-16T01:07:02;16.93;;;10.27;;
18789;SDS011;9523;42.650;23.386;2022-10-16T01:09:37;18.63;;;10.23;;
18789;SDS011;9523;42.650;23.386;2022-10-16T01:12:14;21.57;;;11.00;;
18789;SDS011;9523;42.650;23.386;2022-10-16T01:14:47;16.97;;;9.97;;
18789;SDS011;9523;42.650;23.386;2022-10-16T01:17:20;15.23;;;9.57;;
18789;SDS011;9523;42.650;23.386;2022-10-16T01:22:37;10.17;;;6.50;;
18789;SDS011;9523;42.650;23.386;2022-10-16T01:25:11;10.13;;;6.23;;
18789;SDS011;9523;42.650;23.386;2022-10-16T01:27:44;6.60;;;4.80;;
18789;SDS011;9523;42.650;23.386;2022-10-16T01:30:15;8.37;;;4.90;;
18789;SDS011;9523;42.650;23.386;2022-10-16T01:32:45;9.93;;;5.47;;
18789;SDS011;9523;42.650;23.386;2022-10-16T01:35:17;7.63;;;5.00;;
18789;SDS011;9523;42.650;23.386;2022-10-16T01:37:51;5.47;;;3.97;;
18789;SDS011;9523;42.650;23.386;2022-10-16T01:40:23;8.17;;;4.80;;
18789;SDS011;9523;42.650;23.386;2022-10-16T01:42:54;5.47;;;4.33;;
18789;SDS011;9523;42.650;23.386;2022-10-16T01:45:26;6.53;;;4.73;;
18789;SDS011;9523;42.650;23.386;2022-10-16T01:47:56;6.80;;;4.70;;
18789;SDS011;9523;42.650;23.386;2022-10-16T01:50:29;6.17;;;4.23;;
18789;SDS011;9523;42.650;23.386;2022-10-16T01:52:59;7.20;;;4.13;;
18789;SDS011;9523;42.650;23.386;2022-10-16T01:55:29;5.60;;;4.40;;
18789;SDS011;9523;42.650;23.386;2022-10-16T01:58:01;6.47;;;4.60;;
18789;SDS011;9523;42.650;23.386;2022-10-16T02:00:29;7.30;;;4.80;;
18789;SDS011;9523;42.650;23.386;2022-10-16T02:02:57;7.50;;;4.67;;
18789;SDS011;9523;42.650;23.386;2022-10-16T02:05:28;6.17;;;4.50;;
18789;SDS011;9523;42.650;23.386;2022-10-16T02:07:58;5.70;;;4.47;;
18789;SDS011;9523;42.650;23.386;2022-10-16T02:10:26;7.00;;;4.93;;
18789;SDS011;9523;42.650;23.386;2022-10-16T02:12:57;6.73;;;4.53;;
18789;SDS011;9523;42.650;23.386;2022-10-16T02:15:29;5.17;;;4.20;;
18789;SDS011;9523;42.650;23.386;2022-10-16T02:17:55;6.47;;;4.43;;
18789;SDS011;9523;42.650;23.386;2022-10-16T02:20:25;5.97;;;4.20;;
18789;SDS011;9523;42.650;23.386;2022-10-16T02:22:58;5.40;;;4.13;;
18789;SDS011;9523;42.650;23.386;2022-10-16T02:25:29;7.67;;;5.00;;
18789;SDS011;9523;42.650;23.386;2022-10-16T02:28:00;5.23;;;4.40;;
18789;SDS011;9523;42.650;23.386;2022-10-16T02:30:33;8.27;;;5.00;;
18789;SDS011;9523;42.650;23.386;2022-10-16T02:33:02;7.03;;;4.83;;
18789;SDS011;9523;42.650;23.386;2022-10-16T02:35:33;9.37;;;4.97;;
18789;SDS011;9523;42.650;23.386;2022-10-16T02:38:01;8.63;;;4.67;;
18789;SDS011;9523;42.650;23.386;2022-10-16T02:40:29;7.07;;;4.57;;
18789;SDS011;9523;42.650;23.386;2022-10-16T02:42:56;8.53;;;4.83;;
18789;SDS011;9523;42.650;23.386;2022-10-16T02:45:25;8.50;;;4.67;;
18789;SDS011;9523;42.650;23.386;2022-10-16T02:47:52;5.80;;;4.40;;
18789;SDS011;9523;42.650;23.386;2022-10-16T02:50:19;7.50;;;4.83;;
18789;SDS011;9523;42.650;23.386;2022-10-16T02:52:46;9.00;;;5.37;;
18789;SDS011;9523;42.650;23.386;2022-10-16T02:55:15;7.40;;;5.00;;
18789;SDS011;9523;42.650;23.386;2022-10-16T02:57:41;9.10;;;5.03;;
18789;SDS011;9523;42.650;23.386;2022-10-16T03:00:12;6.80;;;4.87;;
18789;SDS011;9523;42.650;23.386;2022-10-16T03:02:42;8.83;;;5.33;;
18789;SDS011;9523;42.650;23.386;2022-10-16T03:05:09;6.77;;;4.70;;
18789;SDS011;9523;42.650;23.386;2022-10-16T03:07:36;8.47;;;5.17;;
18789;SDS011;9523;42.650;23.386;2022-10-16T03:10:04;8.03;;;5.10;;
18789;SDS011;9523;42.650;23.386;2022-10-16T03:12:31;9.33;;;5.60;;
18789;SDS011;9523;42.650;23.386;2022-10-16T03:14:58;7.03;;;5.23;;
18789;SDS011;9523;42.650;23.386;2022-10-16T03:17:25;8.27;;;5.40;;
18789;SDS011;9523;42.650;23.386;2022-10-16T03:19:54;9.87;;;5.63;;
18789;SDS011;9523;42.650;23.386;2022-10-16T03:22:20;7.30;;;5.37;;
18789;SDS011;9523;42.650;23.386;2022-10-16T03:24:47;12.73;;;5.63;;
18789;SDS011;9523;42.650;23.386;2022-10-16T03:27:14;9.77;;;6.67;;
18789;SDS011;9523;42.650;23.386;2022-10-16T03:29:41;7.83;;;6.20;;
18789;SDS011;9523;42.650;23.386;2022-10-16T03:32:07;8.77;;;6.27;;
18789;SDS011;9523;42.650;23.386;2022-10-16T03:34:34;10.67;;;6.20;;
18789;SDS011;9523;42.650;23.386;2022-10-16T03:37:02;7.97;;;5.57;;
18789;SDS011;9523;42.650;23.386;2022-10-16T03:39:32;8.73;;;6.47;;
18789;SDS011;9523;42.650;23.386;2022-10-16T03:41:59;9.10;;;6.00;;
18789;SDS011;9523;42.650;23.386;2022-10-16T03:44:26;9.87;;;5.83;;
18789;SDS011;9523;42.650;23.386;2022-10-16T03:46:53;8.03;;;6.17;;
18789;SDS011;9523;42.650;23.386;2022-10-16T03:49:19;8.10;;;5.83;;
18789;SDS011;9523;42.650;23.386;2022-10-16T03:51:46;7.53;;;5.63;;
18789;SDS011;9523;42.650;23.386;2022-10-16T03:54:14;14.67;;;6.40;;
18789;SDS011;9523;42.650;23.386;2022-10-16T03:56:41;9.53;;;6.00;;
18789;SDS011;9523;42.650;23.386;2022-10-16T03:59:08;10.13;;;5.93;;
18789;SDS011;9523;42.650;23.386;2022-10-16T04:01:35;10.23;;;5.80;;
18789;SDS011;9523;42.650;23.386;2022-10-16T04:04:01;11.00;;;6.80;;
18789;SDS011;9523;42.650;23.386;2022-10-16T04:06:28;8.70;;;5.90;;
18789;SDS011;9523;42.650;23.386;2022-10-16T04:08:55;7.67;;;5.50;;
18789;SDS011;9523;42.650;23.386;2022-10-16T04:11:23;9.63;;;5.70;;
18789;SDS011;9523;42.650;23.386;2022-10-16T04:13:50;9.87;;;5.87;;
18789;SDS011;9523;42.650;23.386;2022-10-16T04:16:17;8.77;;;6.33;;
18789;SDS011;9523;42.650;23.386;2022-10-16T04:18:44;8.17;;;6.07;;
18789;SDS011;9523;42.650;23.386;2022-10-16T04:21:10;9.40;;;6.17;;
18789;SDS011;9523;42.650;23.386;2022-10-16T04:23:37;9.20;;;6.47;;
18789;SDS011;9523;42.650;23.386;2022-10-16T04:26:04;9.83;;;6.83;;
18789;SDS011;9523;42.650;23.386;2022-10-16T04:28:32;10.77;;;7.20;;
18789;SDS011;9523;42.650;23.386;2022-10-16T04:30:59;12.03;;;6.43;;
18789;SDS011;9523;42.650;23.386;2022-10-16T04:33:26;12.00;;;7.67;;
18789;SDS011;9523;42.650;23.386;2022-10-16T04:35:56;12.63;;;7.13;;
18789;SDS011;9523;42.650;23.386;2022-10-16T04:38:24;10.40;;;6.73;;
18789;SDS011;9523;42.650;23.386;2022-10-16T04:40:51;12.73;;;7.53;;
18789;SDS011;9523;42.650;23.386;2022-10-16T04:43:18;11.00;;;7.20;;
18789;SDS011;9523;42.650;23.386;2022-10-16T04:45:47;16.63;;;8.07;;
18789;SDS011;9523;42.650;23.386;2022-10-16T04:48:15;11.97;;;7.30;;
18789;SDS011;9523;42.650;23.386;2022-10-16T04:50:42;11.13;;;7.37;;
18789;SDS011;9523;42.650;23.386;2022-10-16T04:53:09;13.03;;;7.33;;
18789;SDS011;9523;42.650;23.386;2022-10-16T04:55:35;11.73;;;6.97;;
18789;SDS011;9523;42.650;23.386;2022-10-16T04:58:03;11.00;;;6.57;;
18789;SDS011;9523;42.650;23.386;2022-10-16T05:00:30;10.23;;;6.50;;
18789;SDS011;9523;42.650;23.386;2022-10-16T05:02:58;8.77;;;6.20;;
18789;SDS011;9523;42.650;23.386;2022-10-16T05:05:25;9.43;;;6.57;;
18789;SDS011;9523;42.650;23.386;2022-10-16T05:07:53;9.03;;;6.10;;
18789;SDS011;9523;42.650;23.386;2022-10-16T05:10:20;11.90;;;6.67;;
18789;SDS011;9523;42.650;23.386;2022-10-16T05:12:46;9.23;;;6.77;;
18789;SDS011;9523;42.650;23.386;2022-10-16T05:15:13;9.47;;;5.93;;
18789;SDS011;9523;42.650;23.386;2022-10-16T05:17:40;9.90;;;5.87;;
18789;SDS011;9523;42.650;23.386;2022-10-16T05:20:08;12.57;;;6.97;;
18789;SDS011;9523;42.650;23.386;2022-10-16T05:22:35;9.90;;;6.10;;
18789;SDS011;9523;42.650;23.386;2022-10-16T05:25:02;10.07;;;6.37;;
18789;SDS011;9523;42.650;23.386;2022-10-16T05:27:29;9.53;;;5.70;;
18789;SDS011;9523;42.650;23.386;2022-10-16T05:29:56;9.37;;;6.50;;
18789;SDS011;9523;42.650;23.386;2022-10-16T05:32:23;9.50;;;5.90;;
18789;SDS011;9523;42.650;23.386;2022-10-16T05:34:50;8.67;;;5.67;;
18789;SDS011;9523;42.650;23.386;2022-10-16T05:37:18;8.50;;;5.87;;
18789;SDS011;9523;42.650;23.386;2022-10-16T05:39:45;8.17;;;5.77;;
18789;SDS011;9523;42.650;23.386;2022-10-16T05:42:12;9.30;;;6.27;;
18789;SDS011;9523;42.650;23.386;2022-10-16T05:44:39;8.83;;;5.40;;
18789;SDS011;9523;42.650;23.386;2022-10-16T05:47:06;8.00;;;5.47;;
18789;SDS011;9523;42.650;23.386;2022-10-16T05:49:33;10.17;;;5.57;;
18789;SDS011;9523;42.650;23.386;2022-10-16T05:52:00;9.70;;;6.27;;
18789;SDS011;9523;42.650;23.386;2022-10-16T05:54:28;8.07;;;5.70;;
18789;SDS011;9523;42.650;23.386;2022-10-16T05:56:54;9.83;;;6.30;;
18789;SDS011;9523;42.650;23.386;2022-10-16T05:59:21;11.77;;;6.33;;
18789;SDS011;9523;42.650;23.386;2022-10-16T06:01:48;9.33;;;5.90;;
18789;SDS011;9523;42.650;23.386;2022-10-16T06:04:15;10.37;;;5.67;;
18789;SDS011;9523;42.650;23.386;2022-10-16T06:06:42;8.23;;;6.17;;
18789;SDS011;9523;42.650;23.386;2022-10-16T06:09:09;9.67;;;6.10;;
18789;SDS011;9523;42.650;23.386;2022-10-16T06:11:37;11.13;;;7.03;;
18789;SDS011;9523;42.650;23.386;2022-10-16T06:14:04;15.00;;;8.43;;
18789;SDS011;9523;42.650;23.386;2022-10-16T06:16:32;10.33;;;7.30;;
18789;SDS011;9523;42.650;23.386;2022-10-16T06:19:00;10.47;;;7.03;;
18789;SDS011;9523;42.650;23.386;2022-10-16T06:21:31;12.67;;;7.57;;
18789;SDS011;9523;42.650;23.386;2022-10-16T06:23:58;9.80;;;6.87;;
18789;SDS011;9523;42.650;23.386;2022-10-16T06:26:26;10.83;;;6.87;;
18789;SDS011;9523;42.650;23.386;2022-10-16T06:28:56;9.63;;;6.63;;
18789;SDS011;9523;42.650;23.386;2022-10-16T06:31:24;9.43;;;6.43;;
18789;SDS011;9523;42.650;23.386;2022-10-16T06:33:54;10.00;;;6.73;;
18789;SDS011;9523;42.650;23.386;2022-10-16T06:36:21;9.83;;;7.23;;
18789;SDS011;9523;42.650;23.386;2022-10-16T06:38:49;15.13;;;9.27;;
18789;SDS011;9523;42.650;23.386;2022-10-16T06:41:21;14.20;;;8.53;;
18789;SDS011;9523;42.650;23.386;2022-10-16T06:43:48;10.70;;;6.73;;
18789;SDS011;9523;42.650;23.386;2022-10-16T06:46:17;12.47;;;6.67;;
18789;SDS011;9523;42.650;23.386;2022-10-16T06:48:46;14.77;;;8.10;;
18789;SDS011;9523;42.650;23.386;2022-10-16T06:51:13;12.30;;;7.93;;
18789;SDS011;9523;42.650;23.386;2022-10-16T06:53:42;17.77;;;10.73;;
18789;SDS011;9523;42.650;23.386;2022-10-16T06:56:15;13.10;;;7.43;;
18789;SDS011;9523;42.650;23.386;2022-10-16T06:58:42;13.37;;;8.73;;
18789;SDS011;9523;42.650;23.386;2022-10-16T07:01:10;11.33;;;7.57;;
18789;SDS011;9523;42.650;23.386;2022-10-16T07:03:40;12.23;;;8.17;;
18789;SDS011;9523;42.650;23.386;2022-10-16T07:06:09;13.27;;;7.70;;
18789;SDS011;9523;42.650;23.386;2022-10-16T07:08:37;14.97;;;8.70;;
18789;SDS011;9523;42.650;23.386;2022-10-16T07:11:09;11.00;;;6.97;;
18789;SDS011;9523;42.650;23.386;2022-10-16T07:13:37;14.13;;;8.33;;
18789;SDS011;9523;42.650;23.386;2022-10-16T07:16:05;14.37;;;8.63;;
18789;SDS011;9523;42.650;23.386;2022-10-16T07:18:33;14.80;;;8.90;;
18789;SDS011;9523;42.650;23.386;2022-10-16T07:21:06;13.40;;;8.90;;
18789;SDS011;9523;42.650;23.386;2022-10-16T07:23:34;12.53;;;7.77;;
18789;SDS011;9523;42.650;23.386;2022-10-16T07:26:01;12.33;;;7.93;;
18789;SDS011;9523;42.650;23.386;2022-10-16T07:28:28;14.67;;;9.33;;
18789;SDS011;9523;42.650;23.386;2022-10-16T07:30:59;12.43;;;8.10;;
18789;SDS011;9523;42.650;23.386;2022-10-16T07:33:26;12.73;;;8.90;;
18789;SDS011;9523;42.650;23.386;2022-10-16T07:35:54;14.27;;;8.47;;
18789;SDS011;9523;42.650;23.386;2022-10-16T07:38:23;11.00;;;8.30;;
18789;SDS011;9523;42.650;23.386;2022-10-16T07:40:55;11.97;;;7.73;;
18789;SDS011;9523;42.650;23.386;2022-10-16T07:43:23;15.87;;;8.17;;
18789;SDS011;9523;42.650;23.386;2022-10-16T07:45:51;13.83;;;8.00;;
18789;SDS011;9523;42.650;23.386;2022-10-16T07:48:18;14.77;;;8.97;;
18789;SDS011;9523;42.650;23.386;2022-10-16T07:50:45;13.80;;;7.90;;
18789;SDS011;9523;42.650;23.386;2022-10-16T07:53:12;14.03;;;7.90;;
18789;SDS011;9523;42.650;23.386;2022-10-16T07:55:41;13.70;;;7.80;;
18789;SDS011;9523;42.650;23.386;2022-10-16T07:58:08;10.77;;;8.03;;
18789;SDS011;9523;42.650;23.386;2022-10-16T08:00:35;11.73;;;8.10;;
18789;SDS011;9523;42.650;23.386;2022-10-16T08:03:03;17.77;;;10.63;;
18789;SDS011;9523;42.650;23.386;2022-10-16T08:05:30;11.33;;;7.90;;
18789;SDS011;9523;42.650;23.386;2022-10-16T08:07:59;9.97;;;7.27;;
18789;SDS011;9523;42.650;23.386;2022-10-16T08:10:26;14.30;;;6.37;;
18789;SDS011;9523;42.650;23.386;2022-10-16T08:12:55;10.40;;;5.50;;
18789;SDS011;9523;42.650;23.386;2022-10-16T08:15:22;7.60;;;5.23;;
18789;SDS011;9523;42.650;23.386;2022-10-16T08:17:55;7.63;;;4.70;;
18789;SDS011;9523;42.650;23.386;2022-10-16T08:20:23;11.23;;;6.63;;
18789;SDS011;9523;42.650;23.386;2022-10-16T08:22:51;13.70;;;9.30;;
18789;SDS011;9523;42.650;23.386;2022-10-16T08:25:19;8.70;;;4.67;;
18789;SDS011;9523;42.650;23.386;2022-10-16T08:27:45;8.27;;;5.03;;
18789;SDS011;9523;42.650;23.386;2022-10-16T08:30:14;12.13;;;6.30;;
18789;SDS011;9523;42.650;23.386;2022-10-16T08:32:41;5.65;;;4.00;;
18789;SDS011;9523;42.650;23.386;2022-10-16T08:35:08;4.22;;;3.65;;
18789;SDS011;9523;42.650;23.386;2022-10-16T08:37:35;8.10;;;6.10;;
18789;SDS011;9523;42.650;23.386;2022-10-16T08:40:03;5.18;;;3.55;;
18789;SDS011;9523;42.650;23.386;2022-10-16T08:42:35;12.77;;;6.82;;
18789;SDS011;9523;42.650;23.386;2022-10-16T08:45:19;7.15;;;4.60;;
18789;SDS011;9523;42.650;23.386;2022-10-16T08:48:20;4.80;;;3.75;;
18789;SDS011;9523;42.650;23.386;2022-10-16T08:50:53;5.00;;;3.67;;
18789;SDS011;9523;42.650;23.386;2022-10-16T08:53:24;5.13;;;3.80;;
18789;SDS011;9523;42.650;23.386;2022-10-16T08:55:56;6.45;;;3.75;;
18789;SDS011;9523;42.650;23.386;2022-10-16T08:58:26;6.35;;;4.57;;
18789;SDS011;9523;42.650;23.386;2022-10-16T09:00:56;8.75;;;4.55;;
18789;SDS011;9523;42.650;23.386;2022-10-16T09:03:30;4.07;;;2.92;;
18789;SDS011;9523;42.650;23.386;2022-10-16T09:06:17;6.00;;;3.00;;
18789;SDS011;9523;42.650;23.386;2022-10-16T09:09:00;3.53;;;2.88;;
18789;SDS011;9523;42.650;23.386;2022-10-16T09:11:39;6.45;;;4.75;;
18789;SDS011;9523;42.650;23.386;2022-10-16T09:14:23;6.43;;;3.35;;
18789;SDS011;9523;42.650;23.386;2022-10-16T09:17:18;4.38;;;3.17;;
18789;SDS011;9523;42.650;23.386;2022-10-16T09:19:53;2.70;;;2.50;;
18789;SDS011;9523;42.650;23.386;2022-10-16T09:22:27;4.55;;;3.28;;
18789;SDS011;9523;42.650;23.386;2022-10-16T09:24:55;6.00;;;3.58;;
18789;SDS011;9523;42.650;23.386;2022-10-16T09:27:26;5.10;;;3.25;;
18789;SDS011;9523;42.650;23.386;2022-10-16T09:29:53;5.55;;;3.33;;
18789;SDS011;9523;42.650;23.386;2022-10-16T09:32:21;3.50;;;2.80;;
18789;SDS011;9523;42.650;23.386;2022-10-16T09:34:49;5.07;;;2.95;;
18789;SDS011;9523;42.650;23.386;2022-10-16T09:37:21;3.20;;;2.55;;
18789;SDS011;9523;42.650;23.386;2022-10-16T09:39:50;9.20;;;5.15;;
18789;SDS011;9523;42.650;23.386;2022-10-16T09:42:17;5.00;;;2.88;;
18789;SDS011;9523;42.650;23.386;2022-10-16T09:44:47;4.07;;;2.53;;
18789;SDS011;9523;42.650;23.386;2022-10-16T09:47:16;2.90;;;2.60;;
18789;SDS011;9523;42.650;23.386;2022-10-16T09:49:54;6.03;;;3.65;;
18789;SDS011;9523;42.650;23.386;2022-10-16T09:52:23;4.25;;;2.33;;
18789;SDS011;9523;42.650;23.386;2022-10-16T09:54:50;4.65;;;3.85;;
18789;SDS011;9523;42.650;23.386;2022-10-16T09:57:18;4.53;;;3.65;;
18789;SDS011;9523;42.650;23.386;2022-10-16T09:59:47;7.85;;;3.47;;
18789;SDS011;9523;42.650;23.386;2022-10-16T10:02:15;3.95;;;3.00;;
18789;SDS011;9523;42.650;23.386;2022-10-16T10:04:45;3.92;;;2.80;;
18789;SDS011;9523;42.650;23.386;2022-10-16T10:07:18;3.42;;;3.08;;
18789;SDS011;9523;42.650;23.386;2022-10-16T10:09:50;4.30;;;3.20;;
18789;SDS011;9523;42.650;23.386;2022-10-16T10:12:18;3.55;;;2.58;;
18789;SDS011;9523;42.650;23.386;2022-10-16T10:14:48;4.03;;;3.05;;
18789;SDS011;9523;42.650;23.386;2022-10-16T10:17:17;4.28;;;3.05;;
18789;SDS011;9523;42.650;23.386;2022-10-16T10:19:49;4.10;;;2.95;;
18789;SDS011;9523;42.650;23.386;2022-10-16T10:22:30;5.13;;;2.55;;
18789;SDS011;9523;42.650;23.386;2022-10-16T10:28:08;4.13;;;3.65;;
18789;SDS011;9523;42.650;23.386;2022-10-16T10:30:47;5.32;;;3.47;;
18789;SDS011;9523;42.650;23.386;2022-10-16T10:33:24;6.32;;;4.10;;
18789;SDS011;9523;42.650;23.386;2022-10-16T10:36:00;4.80;;;3.05;;
18789;SDS011;9523;42.650;23.386;2022-10-16T10:38:43;3.97;;;2.97;;
18789;SDS011;9523;42.650;23.386;2022-10-16T10:41:23;3.08;;;2.78;;
18789;SDS011;9523;42.650;23.386;2022-10-16T10:44:04;3.45;;;2.78;;
18789;SDS011;9523;42.650;23.386;2022-10-16T10:46:40;6.93;;;4.68;;
18789;SDS011;9523;42.650;23.386;2022-10-16T10:49:31;5.28;;;4.00;;
18789;SDS011;9523;42.650;23.386;2022-10-16T10:52:13;3.05;;;2.28;;
18789;SDS011;9523;42.650;23.386;2022-10-16T10:54:59;4.25;;;3.42;;
18789;SDS011;9523;42.650;23.386;2022-10-16T10:57:36;3.00;;;2.28;;
18789;SDS011;9523;42.650;23.386;2022-10-16T11:00:15;2.33;;;1.90;;
18789;SDS011;9523;42.650;23.386;2022-10-16T11:02:48;2.00;;;1.80;;
18789;SDS011;9523;42.650;23.386;2022-10-16T11:05:29;2.58;;;1.90;;
18789;SDS011;9523;42.650;23.386;2022-10-16T11:08:07;2.42;;;2.20;;
18789;SDS011;9523;42.650;23.386;2022-10-16T11:10:45;3.25;;;1.83;;
18789;SDS011;9523;42.650;23.386;2022-10-16T11:13:23;2.22;;;1.70;;
18789;SDS011;9523;42.650;23.386;2022-10-16T11:15:57;3.72;;;1.67;;
18789;SDS011;9523;42.650;23.386;2022-10-16T11:18:28;4.50;;;3.42;;
18789;SDS011;9523;42.650;23.386;2022-10-16T11:21:01;4.32;;;3.28;;
18789;SDS011;9523;42.650;23.386;2022-10-16T11:23:32;4.30;;;3.13;;
18789;SDS011;9523;42.650;23.386;2022-10-16T11:26:08;3.25;;;2.95;;
18789;SDS011;9523;42.650;23.386;2022-10-16T11:28:42;4.40;;;2.75;;
18789;SDS011;9523;42.650;23.386;2022-10-16T11:31:14;3.10;;;2.50;;
18789;SDS011;9523;42.650;23.386;2022-10-16T11:33:46;3.17;;;2.40;;
18789;SDS011;9523;42.650;23.386;2022-10-16T11:36:18;3.83;;;2.72;;
18789;SDS011;9523;42.650;23.386;2022-10-16T11:38:53;5.10;;;2.22;;
18789;SDS011;9523;42.650;23.386;2022-10-16T11:41:28;2.58;;;2.30;;
18789;SDS011;9523;42.650;23.386;2022-10-16T11:44:06;7.03;;;4.55;;
18789;SDS011;9523;42.650;23.386;2022-10-16T11:46:43;10.52;;;6.28;;
18789;SDS011;9523;42.650;23.386;2022-10-16T11:49:16;33.25;;;19.05;;
18789;SDS011;9523;42.650;23.386;2022-10-16T11:51:48;11.75;;;5.18;;
18789;SDS011;9523;42.650;23.386;2022-10-16T11:54:25;2.78;;;2.40;;
18789;SDS011;9523;42.650;23.386;2022-10-16T11:57:02;4.05;;;3.13;;
18789;SDS011;9523;42.650;23.386;2022-10-16T11:59:38;4.00;;;3.20;;
18789;SDS011;9523;42.650;23.386;2022-10-16T12:02:25;4.93;;;2.10;;
18789;SDS011;9523;42.650;23.386;2022-10-16T12:05:02;2.58;;;2.30;;
18789;SDS011;9523;42.650;23.386;2022-10-16T12:07:39;3.00;;;2.05;;
18789;SDS011;9523;42.650;23.386;2022-10-16T12:10:19;2.55;;;2.13;;
18789;SDS011;9523;42.650;23.386;2022-10-16T12:12:50;8.40;;;2.40;;
18789;SDS011;9523;42.650;23.386;2022-10-16T12:15:24;1.80;;;1.70;;
18789;SDS011;9523;42.650;23.386;2022-10-16T12:17:52;3.72;;;2.00;;
18789;SDS011;9523;42.650;23.386;2022-10-16T12:20:30;2.53;;;2.17;;
18789;SDS011;9523;42.650;23.386;2022-10-16T12:22:59;4.57;;;2.75;;
18789;SDS011;9523;42.650;23.386;2022-10-16T12:25:28;3.25;;;2.25;;
18789;SDS011;9523;42.650;23.386;2022-10-16T12:28:00;3.22;;;2.72;;
18789;SDS011;9523;42.650;23.386;2022-10-16T12:30:29;3.70;;;2.58;;
18789;SDS011;9523;42.650;23.386;2022-10-16T12:32:58;4.05;;;2.05;;
18789;SDS011;9523;42.650;23.386;2022-10-16T12:35:28;2.47;;;1.85;;
18789;SDS011;9523;42.650;23.386;2022-10-16T12:38:07;3.08;;;2.00;;
18789;SDS011;9523;42.650;23.386;2022-10-16T12:40:42;3.22;;;1.88;;
18789;SDS011;9523;42.650;23.386;2022-10-16T12:43:13;2.80;;;2.20;;
18789;SDS011;9523;42.650;23.386;2022-10-16T12:45:59;3.33;;;1.63;;
18789;SDS011;9523;42.650;23.386;2022-10-16T12:48:27;2.22;;;1.80;;
18789;SDS011;9523;42.650;23.386;2022-10-16T12:50:55;2.83;;;1.77;;
18789;SDS011;9523;42.650;23.386;2022-10-16T12:53:22;15.80;;;11.18;;
18789;SDS011;9523;42.650;23.386;2022-10-16T12:55:53;16.85;;;11.98;;
18789;SDS011;9523;42.650;23.386;2022-10-16T12:58:41;7.10;;;4.78;;
18789;SDS011;9523;42.650;23.386;2022-10-16T13:01:22;4.43;;;3.90;;
18789;SDS011;9523;42.650;23.386;2022-10-16T13:07:00;6.72;;;5.78;;
18789;SDS011;9523;42.650;23.386;2022-10-16T13:09:47;3.30;;;3.00;;
18789;SDS011;9523;42.650;23.386;2022-10-16T13:12:29;2.60;;;1.85;;
18789;SDS011;9523;42.650;23.386;2022-10-16T13:15:22;2.05;;;1.70;;
18789;SDS011;9523;42.650;23.386;2022-10-16T13:18:02;2.05;;;1.70;;
18789;SDS011;9523;42.650;23.386;2022-10-16T13:20:46;2.30;;;1.85;;
18789;SDS011;9523;42.650;23.386;2022-10-16T13:23:24;2.70;;;2.13;;
18789;SDS011;9523;42.650;23.386;2022-10-16T13:26:00;3.40;;;1.95;;
18789;SDS011;9523;42.650;23.386;2022-10-16T13:28:39;2.40;;;2.10;;
18789;SDS011;9523;42.650;23.386;2022-10-16T13:31:10;2.85;;;1.80;;
18789;SDS011;9523;42.650;23.386;2022-10-16T13:33:45;5.43;;;2.13;;
18789;SDS011;9523;42.650;23.386;2022-10-16T13:36:19;2.28;;;1.92;;
18789;SDS011;9523;42.650;23.386;2022-10-16T13:38:47;4.95;;;3.28;;
18789;SDS011;9523;42.650;23.386;2022-10-16T13:41:16;5.70;;;2.58;;
18789;SDS011;9523;42.650;23.386;2022-10-16T13:43:45;2.72;;;1.80;;
18789;SDS011;9523;42.650;23.386;2022-10-16T13:46:17;1.80;;;1.67;;
18789;SDS011;9523;42.650;23.386;2022-10-16T13:48:55;2.90;;;2.40;;
18789;SDS011;9523;42.650;23.386;2022-10-16T13:51:22;4.85;;;2.03;;
18789;SDS011;9523;42.650;23.386;2022-10-16T13:53:49;2.28;;;2.08;;
18789;SDS011;9523;42.650;23.386;2022-10-16T13:56:17;3.15;;;2.42;;
18789;SDS011;9523;42.650;23.386;2022-10-16T13:58:45;4.45;;;2.58;;
18789;SDS011;9523;42.650;23.386;2022-10-16T14:01:18;2.72;;;1.67;;
18789;SDS011;9523;42.650;23.386;2022-10-16T14:03:49;2.70;;;1.90;;
18789;SDS011;9523;42.650;23.386;2022-10-16T14:06:18;3.15;;;2.63;;
18789;SDS011;9523;42.650;23.386;2022-10-16T14:08:48;3.03;;;2.30;;
18789;SDS011;9523;42.650;23.386;2022-10-16T14:11:20;9.25;;;5.55;;
18789;SDS011;9523;42.650;23.386;2022-10-16T14:13:49;11.63;;;8.43;;
18789;SDS011;9523;42.650;23.386;2022-10-16T14:16:19;6.22;;;3.92;;
18789;SDS011;9523;42.650;23.386;2022-10-16T14:18:50;4.10;;;3.05;;
18789;SDS011;9523;42.650;23.386;2022-10-16T14:21:23;3.25;;;2.28;;
18789;SDS011;9523;42.650;23.386;2022-10-16T14:23:54;2.78;;;2.30;;
18789;SDS011;9523;42.650;23.386;2022-10-16T14:26:22;7.35;;;5.53;;
18789;SDS011;9523;42.650;23.386;2022-10-16T14:29:01;5.03;;;3.80;;
18789;SDS011;9523;42.650;23.386;2022-10-16T14:31:37;3.55;;;2.20;;
18789;SDS011;9523;42.650;23.386;2022-10-16T14:36:52;2.72;;;2.17;;
18789;SDS011;9523;42.650;23.386;2022-10-16T14:39:20;4.93;;;3.40;;
18789;SDS011;9523;42.650;23.386;2022-10-16T14:41:49;4.75;;;2.97;;
18789;SDS011;9523;42.650;23.386;2022-10-16T14:44:17;4.65;;;3.63;;
18789;SDS011;9523;42.650;23.386;2022-10-16T14:46:46;3.80;;;2.40;;
18789;SDS011;9523;42.650;23.386;2022-10-16T14:49:15;2.95;;;2.42;;
18789;SDS011;9523;42.650;23.386;2022-10-16T14:51:45;2.72;;;2.25;;
18789;SDS011;9523;42.650;23.386;2022-10-16T14:54:12;3.00;;;2.10;;
18789;SDS011;9523;42.650;23.386;2022-10-16T14:56:47;2.47;;;1.85;;
18789;SDS011;9523;42.650;23.386;2022-10-16T14:59:17;4.35;;;2.35;;
18789;SDS011;9523;42.650;23.386;2022-10-16T15:01:51;4.32;;;2.50;;
18789;SDS011;9523;42.650;23.386;2022-10-16T15:04:18;3.40;;;2.28;;
18789;SDS011;9523;42.650;23.386;2022-10-16T15:06:45;3.67;;;2.30;;
18789;SDS011;9523;42.650;23.386;2022-10-16T15:09:12;3.03;;;2.28;;
18789;SDS011;9523;42.650;23.386;2022-10-16T15:11:39;3.22;;;2.38;;
18789;SDS011;9523;42.650;23.386;2022-10-16T15:14:08;3.05;;;2.15;;
18789;SDS011;9523;42.650;23.386;2022-10-16T15:16:37;7.32;;;2.42;;